createdAt,value
2022-08-17T00:00:44.030Z,88.09
2022-08-17T00:03:45.787Z,88.12
2022-08-17T00:06:29.577Z,88.08
2022-08-17T00:09:03.911Z,88.36
2022-08-17T00:11:41.619Z,88.39
2022-08-17T00:14:15.613Z,89.51
2022-08-17T00:16:56.672Z,89.00
2022-08-17T00:19:26.706Z,90.60
2022-08-17T00:22:31.361Z,90.81
2022-08-17T00:24:46.473Z,89.82
2022-08-17T00:27:16.173Z,90.02
2022-08-17T00:29:46.125Z,89.60
2022-08-17T00:33:14.543Z,90.03
2022-08-17T00:35:10.372Z,89.22
2022-08-17T00:37:39.135Z,89.31
2022-08-17T00:40:12.123Z,89.00
2022-08-17T00:42:42.014Z,89.19
2022-08-17T00:45:14.214Z,88.79
2022-08-17T00:47:44.193Z,88.66
2022-08-17T00:50:17.577Z,89.27
2022-08-17T00:52:55.258Z,90.03
2022-08-17T00:55:26.675Z,89.28
2022-08-17T00:58:00.765Z,90.15
2022-08-17T01:00:39.609Z,89.40
2022-08-17T01:03:19.623Z,90.37
2022-08-17T01:05:53.410Z,90.40
2022-08-17T01:08:26.389Z,90.77
2022-08-17T01:11:01.780Z,90.81
2022-08-17T01:13:41.964Z,90.33
2022-08-17T01:16:29.102Z,90.10
2022-08-17T01:19:04.143Z,90.04
2022-08-17T01:21:42.987Z,90.51
2022-08-17T01:24:11.511Z,90.33
2022-08-17T01:26:42.458Z,91.20
2022-08-17T01:29:11.561Z,90.61
2022-08-17T01:31:51.315Z,91.24
2022-08-17T01:34:20.481Z,91.27
2022-08-17T01:36:50.360Z,91.14
2022-08-17T01:39:28.006Z,90.63
2022-08-17T01:42:29.553Z,91.18
2022-08-17T01:45:06.126Z,90.69
2022-08-17T01:47:36.150Z,90.58
2022-08-17T01:50:18.695Z,91.05
2022-08-17T01:52:51.731Z,90.68
2022-08-17T01:55:27.521Z,90.79
2022-08-17T01:57:56.193Z,90.91
2022-08-17T02:00:24.997Z,91.21
2022-08-17T02:02:53.487Z,92.19
2022-08-17T02:05:22.172Z,91.81
2022-08-17T02:07:59.571Z,91.52
2022-08-17T02:10:34.211Z,91.79
2022-08-17T02:13:04.811Z,92.65
2022-08-17T02:15:34.789Z,92.82
2022-08-17T02:18:05.720Z,92.41
2022-08-17T02:20:41.790Z,92.62
2022-08-17T02:23:13.246Z,92.73
2022-08-17T02:25:45.875Z,92.13
2022-08-17T02:28:17.027Z,91.82
2022-08-17T02:30:59.579Z,92.18
2022-08-17T02:33:43.298Z,92.28
2022-08-17T02:36:14.067Z,92.21
2022-08-17T02:38:42.965Z,91.94
2022-08-17T02:41:12.726Z,91.97
2022-08-17T02:43:41.352Z,92.33
2022-08-17T02:46:10.174Z,93.89
2022-08-17T02:48:40.097Z,92.47
2022-08-17T02:51:09.307Z,93.06
2022-08-17T02:53:37.758Z,93.23
2022-08-17T02:56:06.796Z,93.07
2022-08-17T02:58:36.203Z,93.17
2022-08-17T03:01:08.729Z,93.12
2022-08-17T03:03:38.990Z,92.42
2022-08-17T03:06:08.527Z,92.80
2022-08-17T03:08:38.270Z,92.51
2022-08-17T03:11:06.739Z,92.36
2022-08-17T03:13:35.324Z,92.04
2022-08-17T03:16:04.068Z,91.63
2022-08-17T03:18:32.693Z,91.57
2022-08-17T03:21:04.469Z,91.47
2022-08-17T03:23:33.850Z,91.21
2022-08-17T03:26:02.380Z,90.70
2022-08-17T03:28:30.900Z,90.19
2022-08-17T03:30:59.490Z,89.69
2022-08-17T03:33:28.057Z,89.66
2022-08-17T03:35:57.295Z,89.76
2022-08-17T03:38:26.862Z,89.81
2022-08-17T03:40:59.424Z,89.36
2022-08-17T03:43:33.224Z,89.67
2022-08-17T03:46:26.970Z,89.76
2022-08-17T03:49:16.180Z,89.47
2022-08-17T03:52:02.757Z,89.51
2022-08-17T03:54:49.799Z,89.33
2022-08-17T03:57:19.351Z,89.23
2022-08-17T03:59:48.270Z,88.94
2022-08-17T04:02:25.742Z,88.83
2022-08-17T04:04:54.388Z,89.20
2022-08-17T04:07:26.084Z,89.04
2022-08-17T04:09:54.944Z,88.79
2022-08-17T04:12:25.013Z,88.47
2022-08-17T04:14:55.025Z,88.29
2022-08-17T04:17:28.824Z,88.33
2022-08-17T04:19:57.740Z,88.13
2022-08-17T04:22:32.401Z,87.59
2022-08-17T04:25:18.824Z,87.48
2022-08-17T04:27:49.088Z,87.46
2022-08-17T04:30:17.873Z,87.29
2022-08-17T04:33:11.380Z,87.24
2022-08-17T04:35:50.501Z,86.93
2022-08-17T04:38:25.105Z,86.95
2022-08-17T04:41:13.326Z,86.90
2022-08-17T04:43:43.927Z,86.61
2022-08-17T04:46:19.212Z,86.55
2022-08-17T04:48:51.991Z,86.31
2022-08-17T04:51:26.180Z,86.37
2022-08-17T04:54:04.018Z,86.28
2022-08-17T04:56:33.660Z,86.18
2022-08-17T04:59:06.824Z,85.95
2022-08-17T05:01:38.427Z,86.16
2022-08-17T05:04:33.137Z,85.86
2022-08-17T05:07:01.036Z,85.90
2022-08-17T05:09:29.862Z,85.58
2022-08-17T05:12:02.602Z,85.41
2022-08-17T05:14:33.012Z,85.35
2022-08-17T05:17:04.597Z,84.86
2022-08-17T05:19:39.563Z,83.84
2022-08-17T05:22:08.481Z,83.85
2022-08-17T05:24:42.601Z,83.71
2022-08-17T05:27:15.906Z,83.12
2022-08-17T05:29:48.044Z,83.07
2022-08-17T05:32:38.000Z,82.36
2022-08-17T05:35:07.253Z,82.07
2022-08-17T05:38:01.124Z,82.08
2022-08-17T05:40:32.815Z,81.78
2022-08-17T05:43:35.199Z,80.29
2022-08-17T05:46:29.650Z,80.78
2022-08-17T05:49:12.521Z,80.55
2022-08-17T05:51:59.096Z,79.75
2022-08-17T05:55:56.133Z,78.94
2022-08-17T05:59:16.941Z,78.38
2022-08-17T06:02:38.253Z,78.11
2022-08-17T06:05:51.795Z,75.91
2022-08-17T06:08:57.006Z,76.88
2022-08-17T06:12:09.316Z,76.25
2022-08-17T06:15:26.608Z,76.12
2022-08-17T06:18:10.242Z,74.73
2022-08-17T06:20:56.836Z,74.13
2022-08-17T06:24:26.888Z,73.92
2022-08-17T06:27:30.477Z,73.64
2022-08-17T06:30:10.734Z,73.47
2022-08-17T06:32:49.811Z,70.88
2022-08-17T06:35:50.199Z,71.49
2022-08-17T06:39:03.370Z,71.02
2022-08-17T06:41:54.699Z,71.81
2022-08-17T06:45:10.939Z,71.37
2022-08-17T06:47:58.380Z,70.84
2022-08-17T06:51:30.438Z,71.79
2022-08-17T06:54:09.749Z,70.34
2022-08-17T06:57:06.830Z,69.81
2022-08-17T06:59:55.327Z,70.74
2022-08-17T07:02:52.290Z,71.50
2022-08-17T07:05:30.878Z,70.19
2022-08-17T07:08:27.696Z,69.90
2022-08-17T07:11:04.296Z,70.96
2022-08-17T07:14:16.518Z,70.93
2022-08-17T07:16:56.465Z,71.11
2022-08-17T07:19:35.397Z,70.40
2022-08-17T07:26:39.322Z,69.48
2022-08-17T07:29:18.287Z,69.84
2022-08-17T07:32:37.333Z,67.82
2022-08-17T07:35:11.542Z,66.96
2022-08-17T07:38:25.770Z,67.61
2022-08-17T07:45:41.139Z,67.66
2022-08-17T07:49:32.695Z,68.40
2022-08-17T07:52:51.775Z,68.68
2022-08-17T07:56:14.760Z,69.38
2022-08-17T07:59:54.206Z,69.01
2022-08-17T08:03:13.456Z,69.24
2022-08-17T08:05:56.400Z,68.45
2022-08-17T08:08:43.626Z,68.20
2022-08-17T08:11:28.773Z,68.28
2022-08-17T08:14:41.091Z,68.64
2022-08-17T08:17:27.405Z,68.95
2022-08-17T08:19:57.947Z,69.48
2022-08-17T08:22:43.624Z,68.72
2022-08-17T08:25:50.804Z,68.91
2022-08-17T08:29:13.948Z,68.79
2022-08-17T08:32:19.631Z,68.67
2022-08-17T08:35:07.614Z,68.39
2022-08-17T08:38:13.800Z,67.80
2022-08-17T08:41:03.707Z,66.83
2022-08-17T08:43:56.097Z,65.37
2022-08-17T08:46:40.816Z,65.52
2022-08-17T08:50:02.045Z,64.97
2022-08-17T08:53:19.252Z,65.56
2022-08-17T08:55:54.785Z,64.57
2022-08-17T08:59:21.837Z,64.89
2022-08-17T09:02:25.724Z,63.82
2022-08-17T09:05:26.582Z,63.01
2022-08-17T09:08:22.252Z,63.23
2022-08-17T09:11:31.665Z,62.92
2022-08-17T09:14:28.817Z,63.09
2022-08-17T09:17:09.896Z,63.21
2022-08-17T09:19:58.492Z,63.63
2022-08-17T09:22:45.085Z,63.88
2022-08-17T09:25:27.149Z,64.74
2022-08-17T09:28:10.809Z,64.66
2022-08-17T09:30:56.468Z,64.94
2022-08-17T09:33:33.631Z,65.31
2022-08-17T09:36:22.108Z,65.73
2022-08-17T09:39:29.666Z,65.33
2022-08-17T09:42:43.299Z,65.97
2022-08-17T09:45:38.053Z,66.38
2022-08-17T09:48:19.938Z,66.49
2022-08-17T09:51:45.770Z,66.76
2022-08-17T09:54:39.007Z,66.60
2022-08-17T09:57:30.367Z,66.46
2022-08-17T10:00:12.442Z,66.28
2022-08-17T10:03:20.081Z,65.76
2022-08-17T10:05:57.342Z,65.42
2022-08-17T10:09:12.674Z,65.91
2022-08-17T10:12:22.121Z,65.39
2022-08-17T10:15:49.127Z,65.17
2022-08-17T10:18:39.084Z,65.14
2022-08-17T10:21:34.515Z,65.18
2022-08-17T10:24:39.258Z,64.39
2022-08-17T10:27:19.451Z,63.92
2022-08-17T10:30:05.001Z,63.52
2022-08-17T10:32:35.438Z,63.69
2022-08-17T10:35:38.010Z,63.43
2022-08-17T10:39:04.770Z,62.75
2022-08-17T10:41:48.443Z,61.96
2022-08-17T10:44:56.382Z,61.68
2022-08-17T10:47:27.241Z,60.75
2022-08-17T10:49:56.222Z,60.89
2022-08-17T10:52:29.665Z,59.81
2022-08-17T10:55:32.982Z,59.90
2022-08-17T10:58:22.263Z,60.22
2022-08-17T11:00:59.705Z,60.50
2022-08-17T11:03:38.062Z,61.35
2022-08-17T11:06:45.191Z,61.01
2022-08-17T11:10:19.509Z,60.62
2022-08-17T11:14:25.642Z,59.97
2022-08-17T11:17:53.123Z,60.50
2022-08-17T11:21:47.361Z,59.56
2022-08-17T11:25:33.045Z,58.27
2022-08-17T11:32:37.659Z,57.03
2022-08-17T11:36:02.104Z,57.45
2022-08-17T11:39:06.578Z,57.03
2022-08-17T11:42:05.732Z,57.64
2022-08-17T11:44:59.661Z,55.57
2022-08-17T11:48:28.541Z,55.20
2022-08-17T11:52:07.475Z,54.85
2022-08-17T11:55:17.554Z,55.36
2022-08-17T11:58:43.696Z,56.00
2022-08-17T12:01:29.579Z,57.20
2022-08-17T12:04:28.043Z,57.47
2022-08-17T12:07:25.082Z,57.66
2022-08-17T12:10:01.281Z,56.95
2022-08-17T12:12:47.168Z,57.07
2022-08-17T12:15:29.497Z,55.86
2022-08-17T12:17:59.087Z,55.46
2022-08-17T12:20:38.423Z,56.17
2022-08-17T12:23:32.264Z,56.47
2022-08-17T12:26:31.938Z,56.06
2022-08-17T12:29:18.272Z,55.99
2022-08-17T12:32:20.565Z,55.87
2022-08-17T12:34:52.546Z,55.60
2022-08-17T12:37:35.110Z,55.03
2022-08-17T12:40:37.065Z,54.92
2022-08-17T12:43:22.165Z,55.45
2022-08-17T12:46:15.186Z,55.88
2022-08-17T12:48:59.083Z,55.44
2022-08-17T12:51:29.693Z,55.32
2022-08-17T12:54:00.176Z,54.97
2022-08-17T12:56:30.140Z,54.85
2022-08-17T12:58:59.313Z,54.68
2022-08-17T13:01:35.601Z,53.45
2022-08-17T13:04:07.460Z,52.85
2022-08-17T13:06:37.500Z,52.77
2022-08-17T13:09:33.573Z,52.77
2022-08-17T13:12:05.642Z,52.94
2022-08-17T13:14:36.363Z,52.77
2022-08-17T13:17:11.293Z,52.77
2022-08-17T13:19:51.083Z,52.27
2022-08-17T13:22:24.667Z,50.82
2022-08-17T13:24:58.991Z,50.02
2022-08-17T13:27:30.370Z,49.57
2022-08-17T13:30:05.852Z,49.55
2022-08-17T13:32:43.827Z,49.52
2022-08-17T13:35:40.621Z,49.20
2022-08-17T13:38:51.061Z,49.52
2022-08-17T13:41:51.445Z,49.54
2022-08-17T13:44:36.180Z,49.33
2022-08-17T13:47:16.249Z,48.96
2022-08-17T13:49:48.814Z,49.18
2022-08-17T13:52:52.435Z,49.13
2022-08-17T13:55:24.382Z,48.84
2022-08-17T13:58:06.787Z,48.99
2022-08-17T14:00:37.147Z,48.86
2022-08-17T14:03:06.334Z,48.46
2022-08-17T14:05:38.037Z,48.26
2022-08-17T14:08:07.374Z,48.09
2022-08-17T14:10:37.193Z,47.88
2022-08-17T14:13:07.868Z,47.80
2022-08-17T14:15:55.884Z,47.07
2022-08-17T14:18:55.282Z,46.94
2022-08-17T14:21:16.670Z,46.37
2022-08-17T14:23:54.985Z,47.55
2022-08-17T14:26:24.251Z,47.63
2022-08-17T14:28:54.742Z,47.86
2022-08-17T14:31:26.805Z,47.49
2022-08-17T14:33:55.815Z,47.56
2022-08-17T14:36:24.560Z,47.37
2022-08-17T14:38:53.163Z,47.53
2022-08-17T14:41:23.979Z,48.08
2022-08-17T14:43:53.582Z,47.90
2022-08-17T14:46:23.009Z,48.25
2022-08-17T14:48:57.349Z,48.49
2022-08-17T14:51:30.168Z,49.01
2022-08-17T14:53:59.869Z,49.47
2022-08-17T14:56:35.350Z,49.49
2022-08-17T14:59:07.541Z,49.69
2022-08-17T15:01:37.030Z,49.84
2022-08-17T15:04:06.435Z,49.72
2022-08-17T15:06:35.474Z,49.73
2022-08-17T15:09:05.187Z,49.71
2022-08-17T15:11:35.215Z,50.03
2022-08-17T15:14:04.135Z,49.83
2022-08-17T15:16:36.760Z,49.66
2022-08-17T15:19:12.980Z,49.94
2022-08-17T15:21:42.535Z,49.95
2022-08-17T15:24:11.397Z,50.00
2022-08-17T15:26:40.977Z,50.56
2022-08-17T15:29:11.155Z,51.03
2022-08-17T15:31:40.658Z,51.05
2022-08-17T15:34:52.894Z,51.33
2022-08-17T15:37:25.429Z,51.57
2022-08-17T15:39:55.143Z,51.04
2022-08-17T15:42:26.039Z,51.53
2022-08-17T15:45:33.756Z,51.76
2022-08-17T15:48:21.518Z,52.28
2022-08-17T15:50:50.968Z,52.55
2022-08-17T15:54:19.087Z,52.91
2022-08-17T15:57:08.023Z,53.26
2022-08-17T16:00:04.537Z,53.65
2022-08-17T16:03:45.549Z,58.07
2022-08-17T16:07:03.865Z,65.93
2022-08-17T16:10:45.300Z,72.94
2022-08-17T16:13:54.455Z,75.84
2022-08-17T16:16:55.794Z,78.61
2022-08-17T16:19:34.452Z,81.61
2022-08-17T16:22:19.158Z,83.40
2022-08-17T16:24:57.448Z,84.72
2022-08-17T16:27:28.296Z,84.91
2022-08-17T16:29:57.099Z,86.66
2022-08-17T16:32:31.671Z,84.46
2022-08-17T16:35:12.386Z,84.82
2022-08-17T16:37:41.765Z,86.54
2022-08-17T16:40:25.702Z,89.25
2022-08-17T16:44:01.148Z,88.74
2022-08-17T16:46:52.713Z,90.85
2022-08-17T16:49:49.286Z,92.18
2022-08-17T16:52:42.118Z,92.16
2022-08-17T16:55:17.393Z,92.41
2022-08-17T16:58:00.173Z,91.97
2022-08-17T17:00:38.956Z,91.73
2022-08-17T17:03:48.028Z,91.38
2022-08-17T17:07:07.339Z,91.16
2022-08-17T17:11:23.620Z,91.30
2022-08-17T17:14:50.106Z,91.27
2022-08-17T17:26:11.212Z,91.73
2022-08-17T17:29:17.906Z,91.71
2022-08-17T17:33:26.389Z,91.58
2022-08-17T17:41:08.490Z,91.21
2022-08-17T17:44:19.802Z,90.98
2022-08-17T17:47:37.327Z,90.68
2022-08-17T17:50:57.445Z,90.39
2022-08-17T17:54:28.485Z,91.42
2022-08-17T17:57:19.037Z,91.45
2022-08-17T18:00:01.586Z,92.87
2022-08-17T18:03:33.075Z,91.49
2022-08-17T18:06:34.279Z,92.68
2022-08-17T18:09:40.200Z,91.73
2022-08-17T18:12:16.478Z,93.06
2022-08-17T18:15:37.927Z,92.75
2022-08-17T18:18:18.721Z,91.85
2022-08-17T18:21:24.209Z,91.10
2022-08-17T18:24:02.504Z,91.39
2022-08-17T18:26:45.017Z,90.86
2022-08-17T18:29:29.186Z,90.95
2022-08-17T18:32:51.527Z,91.49
2022-08-17T18:35:37.051Z,91.44
2022-08-17T18:38:45.694Z,91.98
2022-08-17T18:41:45.881Z,91.75
2022-08-17T18:44:43.888Z,92.15
2022-08-17T18:47:21.545Z,91.96
2022-08-17T18:50:29.136Z,92.01
2022-08-17T18:53:34.511Z,91.59
2022-08-17T18:56:32.750Z,92.72
2022-08-17T18:59:26.513Z,91.17
2022-08-17T19:02:23.134Z,92.09
2022-08-17T19:05:41.642Z,92.83
2022-08-17T19:08:38.366Z,92.15
2022-08-17T19:11:34.410Z,92.32
2022-08-17T19:14:10.972Z,92.01
2022-08-17T19:17:04.896Z,92.44
2022-08-17T19:19:56.487Z,92.27
2022-08-17T19:22:43.937Z,92.47
2022-08-17T19:25:19.471Z,92.70
2022-08-17T19:28:21.663Z,93.06
2022-08-17T19:31:03.181Z,92.73
2022-08-17T19:33:57.622Z,92.63
2022-08-17T19:36:59.765Z,92.81
2022-08-17T19:40:09.231Z,92.90
2022-08-17T19:43:16.651Z,92.56
2022-08-17T19:45:56.183Z,92.59
2022-08-17T19:48:51.790Z,92.43
2022-08-17T19:51:44.819Z,92.52
2022-08-17T19:54:39.852Z,92.80
2022-08-17T19:57:47.934Z,92.94
2022-08-17T20:00:19.270Z,92.79
2022-08-17T20:03:16.578Z,93.18
2022-08-17T20:09:15.055Z,92.64
2022-08-17T20:11:56.506Z,92.49
2022-08-17T20:14:37.605Z,92.59
2022-08-17T20:17:37.472Z,92.22
2022-08-17T20:20:46.890Z,92.21
2022-08-17T20:23:33.949Z,92.02
2022-08-17T20:26:39.534Z,91.85
2022-08-17T20:29:15.302Z,91.82
2022-08-17T20:32:08.389Z,91.64
2022-08-17T20:34:39.998Z,91.69
2022-08-17T20:37:14.785Z,91.86
2022-08-17T20:40:09.892Z,91.79
2022-08-17T20:42:39.403Z,91.67
2022-08-17T20:45:26.558Z,91.45
2022-08-17T20:48:30.570Z,91.51
2022-08-17T20:51:01.189Z,91.35
2022-08-17T20:53:50.235Z,91.60
2022-08-17T20:56:45.058Z,91.63
2022-08-17T20:59:42.724Z,91.59
2022-08-17T21:02:33.788Z,91.47
2022-08-17T21:05:27.919Z,91.61
2022-08-17T21:08:45.905Z,91.66
2022-08-17T21:12:02.477Z,91.57
2022-08-17T21:14:23.932Z,91.73
2022-08-17T21:17:59.346Z,91.70
2022-08-17T21:20:40.354Z,92.07
2022-08-17T21:23:18.968Z,91.86
2022-08-17T21:26:51.042Z,91.93
2022-08-17T21:29:31.136Z,91.52
2022-08-17T21:32:10.330Z,91.42
2022-08-17T21:34:44.925Z,91.08
2022-08-17T21:37:24.685Z,91.11
2022-08-17T21:40:00.407Z,90.97
2022-08-17T21:42:38.221Z,90.92
2022-08-17T21:45:28.483Z,90.75
2022-08-17T21:48:24.735Z,90.46
2022-08-17T21:51:13.181Z,90.24
2022-08-17T21:53:53.046Z,89.91
2022-08-17T21:56:25.812Z,89.55
2022-08-17T21:59:19.599Z,89.69
2022-08-17T22:02:30.896Z,89.24
2022-08-17T22:05:13.439Z,88.87
2022-08-17T22:07:59.012Z,88.66
2022-08-17T22:10:45.432Z,88.52
2022-08-17T22:13:29.721Z,88.81
2022-08-17T22:16:28.839Z,88.56
2022-08-17T22:19:00.775Z,88.47
2022-08-17T22:21:29.722Z,88.39
2022-08-17T22:24:27.034Z,88.30
2022-08-17T22:27:25.886Z,88.23
2022-08-17T22:31:04.517Z,88.40
2022-08-17T22:34:07.732Z,88.52
2022-08-17T22:36:40.575Z,88.89
2022-08-17T22:39:09.094Z,89.31
2022-08-17T22:42:03.335Z,88.91
2022-08-17T22:44:32.129Z,88.75
2022-08-17T22:47:43.167Z,88.71
2022-08-17T22:50:33.554Z,88.48
2022-08-17T22:53:35.765Z,88.82
2022-08-17T22:56:23.990Z,88.72
2022-08-17T22:59:20.095Z,88.86
2022-08-17T23:02:14.908Z,88.90
2022-08-17T23:04:55.760Z,89.29
2022-08-17T23:07:24.369Z,88.99
2022-08-17T23:09:53.508Z,89.01
2022-08-17T23:12:26.760Z,88.77
2022-08-17T23:15:01.194Z,88.62
2022-08-17T23:17:36.931Z,88.53
2022-08-17T23:20:09.283Z,88.57
2022-08-17T23:22:51.548Z,88.59
2022-08-17T23:25:31.538Z,88.65
2022-08-17T23:28:25.235Z,88.35
2022-08-17T23:30:53.752Z,88.25
2022-08-17T23:33:30.234Z,88.18
2022-08-17T23:36:01.857Z,88.45
2022-08-17T23:38:32.009Z,88.47
2022-08-17T23:41:05.678Z,88.24
2022-08-17T23:43:34.344Z,88.24
2022-08-17T23:46:03.807Z,88.31
2022-08-17T23:48:36.938Z,88.08
2022-08-17T23:51:16.763Z,88.38
2022-08-17T23:53:55.343Z,88.11
2022-08-17T23:56:26.167Z,88.18
2022-08-17T23:58:56.001Z,88.13
